Aviation Digital Data Service (ADDS)

Output produced by METARs form (1829 UTC 19 August 2019)
found at http://www.aviationweather.gov/metar/data/
 
METAR text: SCFA 191800Z 19010KT 9999 FEW017 14/08 Q1017 NOSIG
Conditions at: SCFA (ANTOFAGASTA/CERR, CL) observed 1800 UTC 19 August 2019
Temperature: 14.0°C (57°F)
Dewpoint: 8.0°C (46°F) [RH = 67%]
Pressure (altimeter): 30.03 inches Hg (1017.0 mb)
Winds: from the S (190 degrees) at 12 MPH (10 knots; 5.1 m/s)
Visibility: 6 or more miles (10+ km)
Ceiling: at least 12,000 feet AGL
Clouds: few clouds at 1700 feet AGL
Weather: no significant weather observed at this time

METAR text: SCFA 191700Z 20010KT 9999 FEW017 14/08 Q1018 NOSIG
Conditions at: SCFA (ANTOFAGASTA/CERR, CL) observed 1700 UTC 19 August 2019
Temperature: 14.0°C (57°F)
Dewpoint: 8.0°C (46°F) [RH = 67%]
Pressure (altimeter): 30.06 inches Hg (1018.0 mb)
Winds: from the SSW (200 degrees) at 12 MPH (10 knots; 5.1 m/s)
Visibility: 6 or more miles (10+ km)
Ceiling: at least 12,000 feet AGL
Clouds: few clouds at 1700 feet AGL
Weather: no significant weather observed at this time

METAR text: SCFA 191600Z 22012KT 9999 FEW017 15/08 Q1018 NOSIG
Conditions at: SCFA (ANTOFAGASTA/CERR, CL) observed 1600 UTC 19 August 2019
Temperature: 15.0°C (59°F)
Dewpoint: 8.0°C (46°F) [RH = 63%]
Pressure (altimeter): 30.06 inches Hg (1018.0 mb)
Winds: from the SW (220 degrees) at 14 MPH (12 knots; 6.2 m/s)
Visibility: 6 or more miles (10+ km)
Ceiling: at least 12,000 feet AGL
Clouds: few clouds at 1700 feet AGL
Weather: no significant weather observed at this time

METAR text: SCFA 191500Z 27004KT 9999 FEW024 15/08 Q1018 NOSIG
Conditions at: SCFA (ANTOFAGASTA/CERR, CL) observed 1500 UTC 19 August 2019
Temperature: 15.0°C (59°F)
Dewpoint: 8.0°C (46°F) [RH = 63%]
Pressure (altimeter): 30.06 inches Hg (1018.0 mb)
Winds: from the W (270 degrees) at 5 MPH (4 knots; 2.1 m/s)
Visibility: 6 or more miles (10+ km)
Ceiling: at least 12,000 feet AGL
Clouds: few clouds at 2400 feet AGL
Weather: no significant weather observed at this time

METAR text: SCFA 191400Z 36004KT 9999 BKN019 14/08 Q1018 NOSIG
Conditions at: SCFA (ANTOFAGASTA/CERR, CL) observed 1400 UTC 19 August 2019
Temperature: 14.0°C (57°F)
Dewpoint: 8.0°C (46°F) [RH = 67%]
Pressure (altimeter): 30.06 inches Hg (1018.0 mb)
Winds: from the N (360 degrees) at 5 MPH (4 knots; 2.1 m/s)
Visibility: 6 or more miles (10+ km)
Ceiling: 1900 feet AGL
Clouds: broken clouds at 1900 feet AGL
Weather: no significant weather observed at this time

METAR text: SCFA 191300Z 30003KT 9999 BKN017 13/09 Q1017 NOSIG
Conditions at: SCFA (ANTOFAGASTA/CERR, CL) observed 1300 UTC 19 August 2019
Temperature: 13.0°C (55°F)
Dewpoint: 9.0°C (48°F) [RH = 77%]
Pressure (altimeter): 30.03 inches Hg (1017.0 mb)
Winds: from the WNW (300 degrees) at 3 MPH (3 knots; 1.5 m/s)
Visibility: 6 or more miles (10+ km)
Ceiling: 1700 feet AGL
Clouds: broken clouds at 1700 feet AGL
Weather: no significant weather observed at this time

METAR text: SCFA 191200Z 20003KT 9999 OVC016 13/08 Q1017 NOSIG
Conditions at: SCFA (ANTOFAGASTA/CERR, CL) observed 1200 UTC 19 August 2019
Temperature: 13.0°C (55°F)
Dewpoint: 8.0°C (46°F) [RH = 72%]
Pressure (altimeter): 30.03 inches Hg (1017.0 mb)
Winds: from the SSW (200 degrees) at 3 MPH (3 knots; 1.5 m/s)
Visibility: 6 or more miles (10+ km)
Ceiling: 1600 feet AGL
Clouds: overcast cloud deck at 1600 feet AGL
Weather: no significant weather observed at this time

METAR text: SCFA 191100Z 19005KT 9999 BKN016 OVC020 12/08 Q1016 NOSIG
Conditions at: SCFA (ANTOFAGASTA/CERR, CL) observed 1100 UTC 19 August 2019
Temperature: 12.0°C (54°F)
Dewpoint: 8.0°C (46°F) [RH = 76%]
Pressure (altimeter): 30.00 inches Hg (1016.0 mb)
Winds: from the S (190 degrees) at 6 MPH (5 knots; 2.6 m/s)
Visibility: 6 or more miles (10+ km)
Ceiling: 1600 feet AGL
Clouds: broken clouds at 1600 feet AGL
overcast cloud deck at 2000 feet AGL
Weather: no significant weather observed at this time

METAR text: SCFA 191000Z 22004KT 9999 OVC020 13/08 Q1017 NOSIG
Conditions at: SCFA (ANTOFAGASTA/CERR, CL) observed 1000 UTC 19 August 2019
Temperature: 13.0°C (55°F)
Dewpoint: 8.0°C (46°F) [RH = 72%]
Pressure (altimeter): 30.03 inches Hg (1017.0 mb)
Winds: from the SW (220 degrees) at 5 MPH (4 knots; 2.1 m/s)
Visibility: 6 or more miles (10+ km)
Ceiling: 2000 feet AGL
Clouds: overcast cloud deck at 2000 feet AGL
Weather: no significant weather observed at this time

METAR text: SCFA 190900Z 22006KT 9999 OVC018 12/09 Q1016 NOSIG
Conditions at: SCFA (ANTOFAGASTA/CERR, CL) observed 0900 UTC 19 August 2019
Temperature: 12.0°C (54°F)
Dewpoint: 9.0°C (48°F) [RH = 82%]
Pressure (altimeter): 30.00 inches Hg (1016.0 mb)
Winds: from the SW (220 degrees) at 7 MPH (6 knots; 3.1 m/s)
Visibility: 6 or more miles (10+ km)
Ceiling: 1800 feet AGL
Clouds: overcast cloud deck at 1800 feet AGL
Weather: no significant weather observed at this time

METAR text: SCFA 190800Z 23006KT 9999 FEW011 OVC015 12/09 Q1017 NOSIG
Conditions at: SCFA (ANTOFAGASTA/CERR, CL) observed 0800 UTC 19 August 2019
Temperature: 12.0°C (54°F)
Dewpoint: 9.0°C (48°F) [RH = 82%]
Pressure (altimeter): 30.03 inches Hg (1017.0 mb)
Winds: from the SW (230 degrees) at 7 MPH (6 knots; 3.1 m/s)
Visibility: 6 or more miles (10+ km)
Ceiling: 1500 feet AGL
Clouds: few clouds at 1100 feet AGL
overcast cloud deck at 1500 feet AGL
Weather: no significant weather observed at this time

METAR text: SCFA 190700Z 23010KT 9999 OVC012 12/09 Q1017 NOSIG
Conditions at: SCFA (ANTOFAGASTA/CERR, CL) observed 0700 UTC 19 August 2019
Temperature: 12.0°C (54°F)
Dewpoint: 9.0°C (48°F) [RH = 82%]
Pressure (altimeter): 30.03 inches Hg (1017.0 mb)
Winds: from the SW (230 degrees) at 12 MPH (10 knots; 5.1 m/s)
Visibility: 6 or more miles (10+ km)
Ceiling: 1200 feet AGL
Clouds: overcast cloud deck at 1200 feet AGL
Weather: no significant weather observed at this time

METAR text: SCFA 190600Z 20008KT 9999 OVC016 13/09 Q1017 NOSIG
Conditions at: SCFA (ANTOFAGASTA/CERR, CL) observed 0600 UTC 19 August 2019
Temperature: 13.0°C (55°F)
Dewpoint: 9.0°C (48°F) [RH = 77%]
Pressure (altimeter): 30.03 inches Hg (1017.0 mb)
Winds: from the SSW (200 degrees) at 9 MPH (8 knots; 4.1 m/s)
Visibility: 6 or more miles (10+ km)
Ceiling: 1600 feet AGL
Clouds: overcast cloud deck at 1600 feet AGL
Weather: no significant weather observed at this time

METAR text: SCFA 190500Z 21010KT 9999 OVC014 13/09 Q1017 NOSIG
Conditions at: SCFA (ANTOFAGASTA/CERR, CL) observed 0500 UTC 19 August 2019
Temperature: 13.0°C (55°F)
Dewpoint: 9.0°C (48°F) [RH = 77%]
Pressure (altimeter): 30.03 inches Hg (1017.0 mb)
Winds: from the SSW (210 degrees) at 12 MPH (10 knots; 5.1 m/s)
Visibility: 6 or more miles (10+ km)
Ceiling: 1400 feet AGL
Clouds: overcast cloud deck at 1400 feet AGL
Weather: no significant weather observed at this time

METAR text: SCFA 190400Z 20006KT 9999 OVC013 13/09 Q1017 NOSIG
Conditions at: SCFA (ANTOFAGASTA/CERR, CL) observed 0400 UTC 19 August 2019
Temperature: 13.0°C (55°F)
Dewpoint: 9.0°C (48°F) [RH = 77%]
Pressure (altimeter): 30.03 inches Hg (1017.0 mb)
Winds: from the SSW (200 degrees) at 7 MPH (6 knots; 3.1 m/s)
Visibility: 6 or more miles (10+ km)
Ceiling: 1300 feet AGL
Clouds: overcast cloud deck at 1300 feet AGL
Weather: no significant weather observed at this time

METAR text: SCFA 190300Z 20005KT 9999 BKN014 12/08 Q1016 NOSIG
Conditions at: SCFA (ANTOFAGASTA/CERR, CL) observed 0300 UTC 19 August 2019
Temperature: 12.0°C (54°F)
Dewpoint: 8.0°C (46°F) [RH = 76%]
Pressure (altimeter): 30.00 inches Hg (1016.0 mb)
Winds: from the SSW (200 degrees) at 6 MPH (5 knots; 2.6 m/s)
Visibility: 6 or more miles (10+ km)
Ceiling: 1400 feet AGL
Clouds: broken clouds at 1400 feet AGL
Weather: no significant weather observed at this time

METAR text: SCFA 190200Z 15004KT 9999 OVC016 13/09 Q1016 NOSIG
Conditions at: SCFA (ANTOFAGASTA/CERR, CL) observed 0200 UTC 19 August 2019
Temperature: 13.0°C (55°F)
Dewpoint: 9.0°C (48°F) [RH = 77%]
Pressure (altimeter): 30.00 inches Hg (1016.0 mb)
Winds: from the SSE (150 degrees) at 5 MPH (4 knots; 2.1 m/s)
Visibility: 6 or more miles (10+ km)
Ceiling: 1600 feet AGL
Clouds: overcast cloud deck at 1600 feet AGL
Weather: no significant weather observed at this time

METAR text: SCFA 190100Z 17008KT 9999 OVC018 13/08 Q1016 NOSIG
Conditions at: SCFA (ANTOFAGASTA/CERR, CL) observed 0100 UTC 19 August 2019
Temperature: 13.0°C (55°F)
Dewpoint: 8.0°C (46°F) [RH = 72%]
Pressure (altimeter): 30.00 inches Hg (1016.0 mb)
Winds: from the S (170 degrees) at 9 MPH (8 knots; 4.1 m/s)
Visibility: 6 or more miles (10+ km)
Ceiling: 1800 feet AGL
Clouds: overcast cloud deck at 1800 feet AGL
Weather: no significant weather observed at this time

METAR text: SCFA 190000Z 19009KT 9999 OVC018 13/09 Q1017 NOSIG
Conditions at: SCFA (ANTOFAGASTA/CERR, CL) observed 0000 UTC 19 August 2019
Temperature: 13.0°C (55°F)
Dewpoint: 9.0°C (48°F) [RH = 77%]
Pressure (altimeter): 30.03 inches Hg (1017.0 mb)
Winds: from the S (190 degrees) at 10 MPH (9 knots; 4.6 m/s)
Visibility: 6 or more miles (10+ km)
Ceiling: 1800 feet AGL
Clouds: overcast cloud deck at 1800 feet AGL
Weather: no significant weather observed at this time

METAR text: SCFA 182300Z 18008KT 9999 BKN018 14/09 Q1017 NOSIG
Conditions at: SCFA (ANTOFAGASTA/CERR, CL) observed 2300 UTC 18 August 2019
Temperature: 14.0°C (57°F)
Dewpoint: 9.0°C (48°F) [RH = 72%]
Pressure (altimeter): 30.03 inches Hg (1017.0 mb)
Winds: from the S (180 degrees) at 9 MPH (8 knots; 4.1 m/s)
Visibility: 6 or more miles (10+ km)
Ceiling: 1800 feet AGL
Clouds: broken clouds at 1800 feet AGL
Weather: no significant weather observed at this time

METAR text: SCFA 182200Z 21012KT 9999 BKN019 14/09 Q1016 NOSIG
Conditions at: SCFA (ANTOFAGASTA/CERR, CL) observed 2200 UTC 18 August 2019
Temperature: 14.0°C (57°F)
Dewpoint: 9.0°C (48°F) [RH = 72%]
Pressure (altimeter): 30.00 inches Hg (1016.0 mb)
Winds: from the SSW (210 degrees) at 14 MPH (12 knots; 6.2 m/s)
Visibility: 6 or more miles (10+ km)
Ceiling: 1900 feet AGL
Clouds: broken clouds at 1900 feet AGL
Weather: no significant weather observed at this time

METAR text: SCFA 182100Z 20013KT 9999 SCT021 14/09 Q1016 BECMG 2130 BKN020
Conditions at: SCFA (ANTOFAGASTA/CERR, CL) observed 2100 UTC 18 August 2019
Temperature: 14.0°C (57°F)
Dewpoint: 9.0°C (48°F) [RH = 72%]
Pressure (altimeter): 30.00 inches Hg (1016.0 mb)
Winds: from the SSW (200 degrees) at 15 MPH (13 knots; 6.7 m/s)
Visibility: 6 or more miles (10+ km)
Ceiling: at least 12,000 feet AGL
Clouds: scattered clouds at 2100 feet AGL
Weather: no significant weather observed at this time

METAR text: SCFA 182000Z 20012KT 9999 SCT020 15/09 Q1016 NOSIG
Conditions at: SCFA (ANTOFAGASTA/CERR, CL) observed 2000 UTC 18 August 2019
Temperature: 15.0°C (59°F)
Dewpoint: 9.0°C (48°F) [RH = 67%]
Pressure (altimeter): 30.00 inches Hg (1016.0 mb)
Winds: from the SSW (200 degrees) at 14 MPH (12 knots; 6.2 m/s)
Visibility: 6 or more miles (10+ km)
Ceiling: at least 12,000 feet AGL
Clouds: scattered clouds at 2000 feet AGL
Weather: no significant weather observed at this time

METAR text: SCFA 181900Z 20014KT 9999 FEW019 SCT300 14/09 Q1017 NOSIG
Conditions at: SCFA (ANTOFAGASTA/CERR, CL) observed 1900 UTC 18 August 2019
Temperature: 14.0°C (57°F)
Dewpoint: 9.0°C (48°F) [RH = 72%]
Pressure (altimeter): 30.03 inches Hg (1017.0 mb)
Winds: from the SSW (200 degrees) at 16 MPH (14 knots; 7.2 m/s)
Visibility: 6 or more miles (10+ km)
Ceiling: at least 12,000 feet AGL
Clouds: few clouds at 1900 feet AGL
scattered clouds at 30000 feet AGL
Weather: no significant weather observed at this time

METAR text: SCFA 181800Z 20010KT 9999 FEW025 BKN300 15/09 Q1017 NOSIG
Conditions at: SCFA (ANTOFAGASTA/CERR, CL) observed 1800 UTC 18 August 2019
Temperature: 15.0°C (59°F)
Dewpoint: 9.0°C (48°F) [RH = 67%]
Pressure (altimeter): 30.03 inches Hg (1017.0 mb)
Winds: from the SSW (200 degrees) at 12 MPH (10 knots; 5.1 m/s)
Visibility: 6 or more miles (10+ km)
Ceiling: 30000 feet AGL
Clouds: few clouds at 2500 feet AGL
broken clouds at 30000 feet AGL
Weather: no significant weather observed at this time

METAR text: SCFA 181700Z 21011KT 9999 FEW025 BKN300 15/08 Q1018 NOSIG
Conditions at: SCFA (ANTOFAGASTA/CERR, CL) observed 1700 UTC 18 August 2019
Temperature: 15.0°C (59°F)
Dewpoint: 8.0°C (46°F) [RH = 63%]
Pressure (altimeter): 30.06 inches Hg (1018.0 mb)
Winds: from the SSW (210 degrees) at 13 MPH (11 knots; 5.7 m/s)
Visibility: 6 or more miles (10+ km)
Ceiling: 30000 feet AGL
Clouds: few clouds at 2500 feet AGL
broken clouds at 30000 feet AGL
Weather: no significant weather observed at this time

METAR text: SCFA 181600Z VRB03KT 9999 FEW025 BKN300 16/08 Q1018 NOSIG
Conditions at: SCFA (ANTOFAGASTA/CERR, CL) observed 1600 UTC 18 August 2019
Temperature: 16.0°C (61°F)
Dewpoint: 8.0°C (46°F) [RH = 59%]
Pressure (altimeter): 30.06 inches Hg (1018.0 mb)
Winds: variable direction winds at 3 MPH (3 knots; 1.5 m/s)
Visibility: 6 or more miles (10+ km)
Ceiling: 30000 feet AGL
Clouds: few clouds at 2500 feet AGL
broken clouds at 30000 feet AGL
Weather: no significant weather observed at this time

METAR text: SCFA 181500Z 21005KT 170V240 9999 FEW024 SCT300 14/08 Q1018NOSIG
Conditions at: SCFA (ANTOFAGASTA/CERR, CL) observed 1500 UTC 18 August 2019
Temperature: 14.0°C (57°F)
Dewpoint: 8.0°C (46°F) [RH = 67%]
Pressure (altimeter): missing
Winds: from the SSW (210 degrees) at 6 MPH (5 knots; 2.6 m/s)
Visibility: 6 or more miles (10+ km)
Ceiling: at least 12,000 feet AGL
Clouds: few clouds at 2400 feet AGL
scattered clouds at 30000 feet AGL
Weather: no significant weather observed at this time

METAR text: SCFA 181400Z 20005KT 140V260 9999 SCT024 SCT300 14/08 Q1019NOSIG
Conditions at: SCFA (ANTOFAGASTA/CERR, CL) observed 1400 UTC 18 August 2019
Temperature: 14.0°C (57°F)
Dewpoint: 8.0°C (46°F) [RH = 67%]
Pressure (altimeter): missing
Winds: from the SSW (200 degrees) at 6 MPH (5 knots; 2.6 m/s)
Visibility: 6 or more miles (10+ km)
Ceiling: at least 12,000 feet AGL
Clouds: scattered clouds at 2400 feet AGL
scattered clouds at 30000 feet AGL
Weather: no significant weather observed at this time

METAR text: SCFA 181300Z 23003KT 9999 BKN022 13/07 Q1018 NOSIG
Conditions at: SCFA (ANTOFAGASTA/CERR, CL) observed 1300 UTC 18 August 2019
Temperature: 13.0°C (55°F)
Dewpoint: 7.0°C (45°F) [RH = 67%]
Pressure (altimeter): 30.06 inches Hg (1018.0 mb)
Winds: from the SW (230 degrees) at 3 MPH (3 knots; 1.5 m/s)
Visibility: 6 or more miles (10+ km)
Ceiling: 2200 feet AGL
Clouds: broken clouds at 2200 feet AGL
Weather: no significant weather observed at this time

METAR text: SCFA 181200Z 04003KT 9999 BKN022 13/07 Q1018 NOSIG
Conditions at: SCFA (ANTOFAGASTA/CERR, CL) observed 1200 UTC 18 August 2019
Temperature: 13.0°C (55°F)
Dewpoint: 7.0°C (45°F) [RH = 67%]
Pressure (altimeter): 30.06 inches Hg (1018.0 mb)
Winds: from the NE (40 degrees) at 3 MPH (3 knots; 1.5 m/s)
Visibility: 6 or more miles (10+ km)
Ceiling: 2200 feet AGL
Clouds: broken clouds at 2200 feet AGL
Weather: no significant weather observed at this time

METAR text: SCFA 181100Z 08004KT 9999 OVC019 13/07 Q1018 NOSIG
Conditions at: SCFA (ANTOFAGASTA/CERR, CL) observed 1100 UTC 18 August 2019
Temperature: 13.0°C (55°F)
Dewpoint: 7.0°C (45°F) [RH = 67%]
Pressure (altimeter): 30.06 inches Hg (1018.0 mb)
Winds: from the E (80 degrees) at 5 MPH (4 knots; 2.1 m/s)
Visibility: 6 or more miles (10+ km)
Ceiling: 1900 feet AGL
Clouds: overcast cloud deck at 1900 feet AGL
Weather: no significant weather observed at this time

METAR text: SCFA 181000Z 06005KT 9999 OVC019 13/08 Q1017 NOSIG
Conditions at: SCFA (ANTOFAGASTA/CERR, CL) observed 1000 UTC 18 August 2019
Temperature: 13.0°C (55°F)
Dewpoint: 8.0°C (46°F) [RH = 72%]
Pressure (altimeter): 30.03 inches Hg (1017.0 mb)
Winds: from the ENE (60 degrees) at 6 MPH (5 knots; 2.6 m/s)
Visibility: 6 or more miles (10+ km)
Ceiling: 1900 feet AGL
Clouds: overcast cloud deck at 1900 feet AGL
Weather: no significant weather observed at this time

METAR text: SCFA 180900Z 01003KT 9999 OVC017 13/09 Q1017 NOSIG
Conditions at: SCFA (ANTOFAGASTA/CERR, CL) observed 0900 UTC 18 August 2019
Temperature: 13.0°C (55°F)
Dewpoint: 9.0°C (48°F) [RH = 77%]
Pressure (altimeter): 30.03 inches Hg (1017.0 mb)
Winds: from the N (10 degrees) at 3 MPH (3 knots; 1.5 m/s)
Visibility: 6 or more miles (10+ km)
Ceiling: 1700 feet AGL
Clouds: overcast cloud deck at 1700 feet AGL
Weather: no significant weather observed at this time

METAR text: SCFA 180800Z 23002KT 9999 OVC013 13/09 Q1017 NOSIG
Conditions at: SCFA (ANTOFAGASTA/CERR, CL) observed 0800 UTC 18 August 2019
Temperature: 13.0°C (55°F)
Dewpoint: 9.0°C (48°F) [RH = 77%]
Pressure (altimeter): 30.03 inches Hg (1017.0 mb)
Winds: from the SW (230 degrees) at 2 MPH (2 knots; 1.0 m/s)
Visibility: 6 or more miles (10+ km)
Ceiling: 1300 feet AGL
Clouds: overcast cloud deck at 1300 feet AGL
Weather: no significant weather observed at this time

METAR text: SCFA 180700Z 21004KT 9999 FEW014 OVC016 13/09 Q1018 NOSIG
Conditions at: SCFA (ANTOFAGASTA/CERR, CL) observed 0700 UTC 18 August 2019
Temperature: 13.0°C (55°F)
Dewpoint: 9.0°C (48°F) [RH = 77%]
Pressure (altimeter): 30.06 inches Hg (1018.0 mb)
Winds: from the SSW (210 degrees) at 5 MPH (4 knots; 2.1 m/s)
Visibility: 6 or more miles (10+ km)
Ceiling: 1600 feet AGL
Clouds: few clouds at 1400 feet AGL
overcast cloud deck at 1600 feet AGL
Weather: no significant weather observed at this time

Forecast for: SCFA (ANTOFAGASTA/CERR, CL)
Text: TAF SCFA 191620Z 1918/2018 21012KT 9999 FEW020 TX15/1918Z TN13/2006Z
Forecast period: 1800 to 2200 UTC 19 August 2019
Forecast type: FROM: standard forecast or significant change
Winds: from the SSW (210 degrees) at 14 MPH (12 knots; 6.2 m/s)
Visibility: 6 or more miles 10+ km)
Ceiling: at least 12,000 feet AGL
Clouds: few clouds at 2000 feet AGL
Weather: no significant weather forecast for this period
Text: BECMG 1922/1924 BKN020
Forecast period: 2200 UTC 19 August 2019 to 0200 UTC 20 August 2019
Forecast type: BECOMING: Conditions expected to become as follows by 0000 UTC 20 August 2019
Winds: from the SSW (210 degrees) at 14 MPH (12 knots; 6.2 m/s)
Visibility: 6 or more miles 10+ km)
Ceiling: 2000 feet AGL
Clouds: broken clouds at 2000 feet AGL
Weather: no significant weather forecast for this period
Text: BECMG 2002/2004 17004KT OVC015
Forecast period: 0200 to 1000 UTC 20 August 2019
Forecast type: BECOMING: Conditions expected to become as follows by 0400 UTC 20 August 2019
Winds: from the S (170 degrees) at 5 MPH (4 knots; 2.1 m/s)
Visibility: 6 or more miles 10+ km)
Ceiling: 1500 feet AGL
Clouds: overcast cloud deck at 1500 feet AGL
Weather: no significant weather forecast for this period
Text: BECMG 2010/2012 36004KT BKN018
Forecast period: 1000 to 1600 UTC 20 August 2019
Forecast type: BECOMING: Conditions expected to become as follows by 1200 UTC 20 August 2019
Winds: from the N (360 degrees) at 5 MPH (4 knots; 2.1 m/s)
Visibility: 6 or more miles 10+ km)
Ceiling: 1800 feet AGL
Clouds: broken clouds at 1800 feet AGL
Weather: no significant weather forecast for this period
Text: BECMG 2016/2018 22010KT FEW020
Forecast period: 1600 to 1800 UTC 20 August 2019
Forecast type: BECOMING: Conditions expected to become as follows by 1800 UTC 20 August 2019
Winds: from the SW (220 degrees) at 12 MPH (10 knots; 5.1 m/s)
Visibility: 6 or more miles 10+ km)
Ceiling: at least 12,000 feet AGL
Clouds: few clouds at 2000 feet AGL
Weather: no significant weather forecast for this period